Time;durP1;ratioP1;P1;durP2;ratioP2;P2;SDS_P1;SDS_P2;PMS_P1;PMS_P2;Temp;Humidity;BMP_temperature;BMP_pressure;BME280_temperature;BME280_humidity;BME280_pressure;Samples;Min_cycle;Max_cycle;Signal;HPM_P1;HPM_P2
2023/08/16 00:01:23;;;;;;;6.80;4.30;;;;;;;21.01;69.83;101746.16;5115462;28;20016;-66
2023/08/16 00:03:49;;;;;;;9.45;4.82;;;;;;;20.84;69.97;101745.00;5115363;28;20387;-65
2023/08/16 00:06:14;;;;;;;6.38;3.92;;;;;;;20.80;70.79;101745.44;5114186;28;20026;-66
2023/08/16 00:08:41;;;;;;;6.47;4.50;;;;;;;20.85;70.96;101748.56;5113614;28;20077;-65
2023/08/16 00:11:07;;;;;;;9.15;4.25;;;;;;;20.91;70.89;101760.66;5115423;28;20032;-66
2023/08/16 00:13:34;;;;;;;6.38;4.25;;;;;;;20.86;71.42;101750.28;5115173;28;20526;-66
2023/08/16 00:16:00;;;;;;;6.95;4.22;;;;;;;20.79;71.57;101752.69;5115020;28;20047;-66
2023/08/16 00:18:26;;;;;;;6.22;4.70;;;;;;;20.80;70.96;101740.88;5114962;28;20436;-66
2023/08/16 00:20:51;;;;;;;5.40;4.15;;;;;;;20.91;71.30;101757.94;5115057;28;20106;-66
2023/08/16 00:23:17;;;;;;;7.65;4.38;;;;;;;20.72;71.95;101754.25;5115058;28;20024;-66
2023/08/16 00:25:42;;;;;;;6.25;4.03;;;;;;;20.82;71.95;101749.72;5113216;28;20436;-66
2023/08/16 00:28:07;;;;;;;7.32;4.38;;;;;;;20.67;72.72;101751.09;5115120;28;20055;-66
2023/08/16 00:30:33;;;;;;;7.25;4.30;;;;;;;20.68;72.29;101746.56;5113548;28;20102;-66
2023/08/16 00:33:01;;;;;;;17.35;5.22;;;;;;;20.72;71.83;101746.13;5113603;28;20043;-66
2023/08/16 00:35:27;;;;;;;7.78;4.43;;;;;;;20.63;72.34;101752.41;5114457;28;20023;-65
2023/08/16 00:37:52;;;;;;;9.32;4.53;;;;;;;20.70;72.45;101756.22;5114847;28;20424;-65
2023/08/16 00:40:20;;;;;;;5.93;4.30;;;;;;;20.54;73.17;101745.97;5114292;28;20031;-66
2023/08/16 00:42:45;;;;;;;6.18;4.50;;;;;;;20.54;72.91;101743.28;5113561;28;20477;-66
2023/08/16 00:45:11;;;;;;;6.68;3.88;;;;;;;20.54;73.32;101756.78;5113191;28;20045;-65
2023/08/16 00:47:36;;;;;;;7.60;4.10;;;;;;;20.46;73.74;101763.84;5114723;28;20027;-66
2023/08/16 00:50:03;;;;;;;7.05;4.55;;;;;;;20.34;74.09;101763.97;5114150;28;20024;-66
2023/08/16 00:52:29;;;;;;;8.85;4.75;;;;;;;20.36;73.99;101772.78;5113192;28;20394;-65
2023/08/16 00:54:55;;;;;;;9.35;4.72;;;;;;;20.33;74.02;101777.63;5112656;28;20065;-66
2023/08/16 00:57:20;;;;;;;6.65;4.18;;;;;;;20.32;73.96;101771.34;5114411;28;20489;-65
2023/08/16 00:59:46;;;;;;;9.05;4.32;;;;;;;20.33;74.41;101773.06;5113033;28;20498;-66
2023/08/16 01:02:15;;;;;;;5.90;4.07;;;;;;;20.23;74.94;101776.72;5114227;28;20382;-65
2023/08/16 01:04:43;;;;;;;8.73;4.47;;;;;;;20.13;75.07;101771.28;5114071;28;20436;-66
2023/08/16 01:07:09;;;;;;;5.60;4.15;;;;;;;20.12;75.34;101769.59;5114431;27;20023;-65
2023/08/16 01:09:35;;;;;;;6.57;4.10;;;;;;;20.16;75.19;101774.56;5112269;28;20031;-66
2023/08/16 01:12:12;;;;;;;7.80;4.57;;;;;;;20.17;74.98;101780.81;5112833;28;20112;-65
2023/08/16 01:14:50;;;;;;;5.22;4.40;;;;;;;20.24;75.44;101783.84;5114134;28;20030;-65
2023/08/16 01:17:16;;;;;;;6.63;4.82;;;;;;;20.13;75.71;101785.66;5113627;27;20051;-65
2023/08/16 01:19:44;;;;;;;7.88;5.78;;;;;;;20.18;75.61;101779.84;5112382;28;20046;-65
2023/08/16 01:22:40;;;;;;;7.97;5.72;;;;;;;20.20;75.51;101785.94;5112986;28;20401;-65
2023/08/16 01:25:32;;;;;;;9.13;6.13;;;;;;;20.11;76.08;101795.72;5113365;28;20031;-65
2023/08/16 01:27:59;;;;;;;9.60;6.22;;;;;;;20.13;75.52;101791.03;5095640;28;20101;-66
2023/08/16 01:30:25;;;;;;;10.13;6.50;;;;;;;20.17;75.63;101794.31;5113721;28;20043;-66
2023/08/16 01:32:50;;;;;;;8.20;6.10;;;;;;;20.10;76.14;101794.03;5113574;28;20023;-65
2023/08/16 01:35:18;;;;;;;12.23;6.30;;;;;;;20.04;76.13;101805.38;5112258;28;20093;-65
2023/08/16 01:37:43;;;;;;;10.43;6.72;;;;;;;20.06;76.09;101813.31;5113598;28;20077;-65
2023/08/16 01:40:09;;;;;;;12.30;6.90;;;;;;;20.05;76.23;101808.91;5113245;28;20031;-66
2023/08/16 01:42:40;;;;;;;8.45;5.93;;;;;;;20.00;76.67;101816.56;5112339;28;20008;-66
2023/08/16 01:45:09;;;;;;;8.45;6.45;;;;;;;20.03;76.58;101805.50;5113533;28;20030;-66
2023/08/16 01:47:36;;;;;;;10.48;6.10;;;;;;;19.90;76.96;101800.31;5111971;28;20118;-65
2023/08/16 01:50:03;;;;;;;8.85;6.05;;;;;;;19.97;76.48;101801.47;5111842;28;20030;-66
2023/08/16 01:52:29;;;;;;;9.55;6.28;;;;;;;20.00;76.28;101803.94;5113320;28;20030;-65
2023/08/16 01:54:54;;;;;;;8.93;6.78;;;;;;;19.98;76.14;101789.72;5111521;28;20107;-65
2023/08/16 01:57:20;;;;;;;10.25;6.80;;;;;;;19.96;76.60;101806.03;5094953;28;20023;-65
2023/08/16 01:59:45;;;;;;;12.48;6.25;;;;;;;19.95;76.42;101804.34;5111951;28;20035;-65
2023/08/16 02:02:11;;;;;;;7.80;6.55;;;;;;;19.93;76.93;101800.91;5113028;28;20390;-65
2023/08/16 02:04:36;;;;;;;9.00;6.55;;;;;;;19.89;77.15;101801.31;5113083;28;20028;-65
2023/08/16 02:07:01;;;;;;;8.95;6.28;;;;;;;19.80;78.08;101802.13;5113171;28;20462;-65
2023/08/16 02:09:27;;;;;;;7.80;5.93;;;;;;;19.80;78.10;101807.53;5112377;28;20462;-65
2023/08/16 02:11:52;;;;;;;10.25;6.78;;;;;;;19.67;78.64;101811.25;5113071;28;20047;-65
2023/08/16 02:14:18;;;;;;;10.00;6.03;;;;;;;19.73;78.12;101799.94;5112884;28;20500;-65
2023/08/16 02:16:43;;;;;;;7.78;6.35;;;;;;;19.78;78.04;101810.34;5112594;28;20043;-65
2023/08/16 02:19:09;;;;;;;11.50;6.78;;;;;;;19.68;78.41;101804.91;5111598;28;20058;-65
2023/08/16 02:21:34;;;;;;;8.95;6.40;;;;;;;19.67;77.97;101810.41;5111652;28;20022;-65
2023/08/16 02:24:00;;;;;;;10.25;6.88;;;;;;;19.70;78.33;101815.53;5111039;28;20046;-65
2023/08/16 02:26:27;;;;;;;8.60;6.78;;;;;;;19.64;78.22;101814.19;5112744;28;20064;-65
2023/08/16 02:28:55;;;;;;;9.98;5.93;;;;;;;19.63;78.73;101812.50;5111182;28;20024;-65
2023/08/16 02:31:23;;;;;;;7.40;6.30;;;;;;;19.64;78.99;101810.66;5112002;28;20023;-65
2023/08/16 02:33:49;;;;;;;9.07;6.82;;;;;;;19.51;78.72;101811.72;5112626;28;20460;-65
2023/08/16 02:36:14;;;;;;;7.82;6.57;;;;;;;19.45;78.59;101801.44;5094511;28;20115;-65
2023/08/16 02:38:39;;;;;;;8.27;7.15;;;;;;;19.56;78.46;101795.13;5112359;28;20019;-65
2023/08/16 02:41:05;;;;;;;10.15;7.45;;;;;;;19.51;78.48;101795.50;5111417;28;20008;-65
2023/08/16 02:43:30;;;;;;;9.45;7.15;;;;;;;19.47;78.81;101790.50;5112519;28;20432;-65
2023/08/16 02:45:56;;;;;;;14.00;7.20;;;;;;;19.56;78.33;101791.56;5111153;28;20027;-65
2023/08/16 02:48:21;;;;;;;10.90;7.82;;;;;;;19.47;78.62;101782.41;5112178;28;20020;-65
2023/08/16 02:50:48;;;;;;;9.88;7.40;;;;;;;19.46;78.79;101792.34;5111449;28;20362;-65
2023/08/16 02:53:13;;;;;;;8.65;7.65;;;;;;;19.42;78.72;101792.75;5111228;28;20386;-65
2023/08/16 02:55:39;;;;;;;9.45;7.65;;;;;;;19.49;78.57;101800.19;5112295;28;20031;-65
2023/08/16 02:58:04;;;;;;;13.07;8.18;;;;;;;19.48;78.46;101800.31;5111222;28;20026;-65
2023/08/16 03:00:30;;;;;;;8.55;7.45;;;;;;;19.45;78.61;101792.50;5112103;28;20028;-65
2023/08/16 03:02:55;;;;;;;10.60;7.88;;;;;;;19.52;78.68;101799.06;5111197;28;20024;-65
2023/08/16 03:05:21;;;;;;;13.10;8.30;;;;;;;19.45;78.61;101797.88;5111151;28;20039;-65
2023/08/16 03:07:49;;;;;;;9.85;8.52;;;;;;;19.41;78.90;101805.41;5112473;28;20051;-65
2023/08/16 03:10:14;;;;;;;11.93;8.13;;;;;;;19.42;78.91;101807.09;5110638;28;20028;-65
2023/08/16 03:12:40;;;;;;;10.43;8.25;;;;;;;19.45;79.04;101804.13;5111231;28;20489;-65
2023/08/16 03:15:06;;;;;;;13.60;8.55;;;;;;;19.41;78.79;101796.41;5110949;28;20020;-65
2023/08/16 03:17:32;;;;;;;11.25;9.48;;;;;;;19.34;79.02;101798.78;5110690;28;20097;-65
2023/08/16 03:19:57;;;;;;;12.65;8.70;;;;;;;19.37;79.17;101803.94;5110713;28;20058;-65
2023/08/16 03:22:22;;;;;;;12.52;9.20;;;;;;;19.38;78.36;101813.72;5111977;28;20031;-65
2023/08/16 03:24:49;;;;;;;9.82;8.25;;;;;;;19.35;78.00;101803.19;5110248;28;20085;-65
2023/08/16 03:27:15;;;;;;;12.50;8.40;;;;;;;19.33;78.61;101799.78;5111929;28;20366;-65
2023/08/16 03:29:41;;;;;;;12.25;9.18;;;;;;;19.34;78.54;101803.34;5111572;28;20035;-65
2023/08/16 03:32:06;;;;;;;12.60;8.40;;;;;;;19.28;78.57;101808.25;5111945;28;20035;-65
2023/08/16 03:34:34;;;;;;;11.40;8.73;;;;;;;19.16;78.43;101792.28;5110522;28;20023;-65
2023/08/16 03:36:59;;;;;;;12.15;8.88;;;;;;;19.18;78.42;101804.66;5111982;28;20023;-65
2023/08/16 03:39:24;;;;;;;11.63;8.30;;;;;;;19.18;78.92;101811.88;5111285;28;20493;-65
2023/08/16 03:41:50;;;;;;;10.98;8.70;;;;;;;19.19;79.61;101813.59;5114328;28;20023;-65
2023/08/16 03:44:15;;;;;;;12.50;8.43;;;;;;;19.25;78.90;101819.31;5115255;28;20028;-65
2023/08/16 03:46:41;;;;;;;10.77;8.52;;;;;;;19.20;79.18;101818.00;5115453;28;20028;-65
2023/08/16 03:49:06;;;;;;;15.68;8.82;;;;;;;19.11;79.46;101816.91;5114091;28;20114;-65
2023/08/16 03:51:31;;;;;;;14.40;9.15;;;;;;;19.02;79.05;101813.16;5115390;28;20043;-65
2023/08/16 03:53:57;;;;;;;13.00;8.60;;;;;;;19.07;79.41;101810.09;5114942;27;20027;-65
2023/08/16 03:56:23;;;;;;;12.02;9.07;;;;;;;18.92;79.96;101814.06;5114081;28;20073;-65
2023/08/16 03:58:48;;;;;;;13.60;8.75;;;;;;;19.04;79.91;101821.97;5115050;28;20115;-65
2023/08/16 04:01:14;;;;;;;13.60;9.65;;;;;;;18.92;80.60;101816.75;5113921;28;20161;-65
2023/08/16 04:03:42;;;;;;;10.80;9.25;;;;;;;18.88;80.50;101820.66;5115322;28;20031;-65
2023/08/16 04:06:11;;;;;;;12.10;8.95;;;;;;;18.88;80.30;101815.28;5115401;28;20026;-65
2023/08/16 04:08:38;;;;;;;11.48;8.68;;;;;;;18.87;80.46;101827.06;5113282;28;20020;-65
2023/08/16 04:11:03;;;;;;;9.73;8.73;;;;;;;18.89;80.10;101822.41;5113769;28;20027;-65
2023/08/16 04:13:29;;;;;;;14.15;8.85;;;;;;;18.88;80.57;101824.22;5114966;28;20084;-65
2023/08/16 04:15:54;;;;;;;10.40;8.43;;;;;;;18.73;81.06;101833.53;5113970;28;20028;-65
2023/08/16 04:18:20;;;;;;;10.07;9.00;;;;;;;18.80;80.42;101835.66;5114913;28;20402;-65
2023/08/16 04:20:45;;;;;;;10.02;8.38;;;;;;;18.79;80.53;101827.69;5115060;28;20102;-65
2023/08/16 04:23:10;;;;;;;10.25;8.35;;;;;;;18.81;80.69;101834.66;5115112;28;20023;-65
2023/08/16 04:25:36;;;;;;;10.35;8.73;;;;;;;18.80;80.93;101832.09;5114812;28;20102;-65
2023/08/16 04:28:01;;;;;;;10.57;9.07;;;;;;;18.86;80.97;101837.00;5114847;27;20032;-65
2023/08/16 04:30:29;;;;;;;10.05;8.80;;;;;;;18.84;80.87;101831.72;5114598;28;20061;-65
2023/08/16 04:32:54;;;;;;;14.07;9.70;;;;;;;18.74;81.48;101843.41;5114899;28;20024;-65
2023/08/16 04:35:20;;;;;;;12.50;10.23;;;;;;;18.79;81.44;101843.84;5113358;28;20089;-65
2023/08/16 04:37:45;;;;;;;15.98;9.50;;;;;;;18.79;81.44;101828.53;5114711;28;20106;-65
2023/08/16 04:40:11;;;;;;;12.60;9.80;;;;;;;18.76;81.26;101834.16;5114123;28;20036;-65
2023/08/16 04:42:37;;;;;;;14.48;10.00;;;;;;;18.82;81.24;101827.44;5114673;28;20026;-66
2023/08/16 04:45:03;;;;;;;14.20;9.88;;;;;;;18.60;82.01;101826.47;5114468;28;20019;-65
2023/08/16 04:47:29;;;;;;;13.63;9.73;;;;;;;18.68;81.51;101822.28;5114609;28;20023;-65
2023/08/16 04:49:55;;;;;;;15.70;9.60;;;;;;;18.67;82.12;101812.50;5114291;28;20470;-65
2023/08/16 04:52:20;;;;;;;13.25;9.68;;;;;;;18.74;82.13;101830.75;5112550;28;20114;-65
2023/08/16 04:54:46;;;;;;;9.82;8.48;;;;;;;18.68;81.13;101830.34;5112656;28;20022;-65
2023/08/16 04:57:11;;;;;;;9.35;8.43;;;;;;;18.67;81.48;101824.13;5114237;28;20161;-65
2023/08/16 04:59:36;;;;;;;13.00;8.35;;;;;;;18.60;81.35;101834.53;5112925;28;20024;-65
2023/08/16 05:02:02;;;;;;;9.85;8.23;;;;;;;18.72;80.66;101837.22;5112954;28;20030;-65
2023/08/16 05:04:27;;;;;;;9.35;8.45;;;;;;;18.71;80.87;101843.63;5114125;28;20299;-65
2023/08/16 05:06:53;;;;;;;10.65;8.60;;;;;;;18.63;81.48;101846.06;5113005;28;20070;-65
2023/08/16 05:09:18;;;;;;;11.75;8.80;;;;;;;18.61;81.23;101835.41;5113554;28;20024;-65
2023/08/16 05:11:43;;;;;;;11.05;8.30;;;;;;;18.60;81.28;101828.31;5113802;28;20024;-65
2023/08/16 05:14:09;;;;;;;12.48;8.77;;;;;;;18.61;80.83;101833.56;5113915;28;20047;-65
2023/08/16 05:16:34;;;;;;;13.45;9.40;;;;;;;18.61;80.85;101847.03;5112570;28;20506;-65
2023/08/16 05:19:00;;;;;;;10.18;8.98;;;;;;;18.69;80.78;101853.66;5113765;28;20030;-65
2023/08/16 05:21:26;;;;;;;12.18;9.23;;;;;;;18.47;81.79;101858.09;5112569;28;20083;-65
2023/08/16 05:23:51;;;;;;;10.60;8.27;;;;;;;18.65;82.01;101855.75;5112208;28;20462;-65
2023/08/16 05:26:19;;;;;;;11.05;9.20;;;;;;;18.61;81.17;101856.97;5112280;28;20039;-65
2023/08/16 05:28:45;;;;;;;11.35;9.10;;;;;;;18.62;80.90;101861.38;5113462;28;20092;-65
2023/08/16 05:31:11;;;;;;;10.85;9.05;;;;;;;18.59;81.42;101857.09;5112445;28;20020;-65
2023/08/16 05:33:40;;;;;;;9.27;8.38;;;;;;;18.64;81.88;101866.63;5112372;28;20027;-66
2023/08/16 05:36:06;;;;;;;13.25;8.77;;;;;;;18.60;80.70;101863.34;5112394;28;20553;-65
2023/08/16 05:38:35;;;;;;;10.35;9.18;;;;;;;18.49;81.43;101850.72;5112975;27;20059;-66
2023/08/16 05:41:03;;;;;;;10.98;8.15;;;;;;;18.51;81.18;101850.63;5113321;28;20405;-65
2023/08/16 05:43:29;;;;;;;9.93;8.98;;;;;;;18.47;81.44;101855.41;5113288;28;20019;-65
2023/08/16 05:45:54;;;;;;;10.82;8.25;;;;;;;18.56;80.91;101868.13;5095287;28;20382;-65
2023/08/16 05:48:19;;;;;;;11.48;8.27;;;;;;;18.58;81.26;101866.13;5111898;28;20474;-65
2023/08/16 05:50:45;;;;;;;9.93;8.70;;;;;;;18.58;81.25;101879.63;5111911;28;20393;-65
2023/08/16 05:53:10;;;;;;;9.52;8.13;;;;;;;18.54;81.21;101875.47;5113147;28;20032;-65
2023/08/16 05:55:36;;;;;;;12.10;8.02;;;;;;;18.53;80.82;101870.19;5112923;28;20027;-65
2023/08/16 05:58:02;;;;;;;10.98;8.05;;;;;;;18.66;80.50;101883.53;5113041;28;20432;-65
2023/08/16 06:00:27;;;;;;;9.68;8.68;;;;;;;18.58;81.51;101893.09;5112900;28;20031;-65
2023/08/16 06:02:52;;;;;;;11.65;8.65;;;;;;;18.55;81.34;101892.47;5113243;28;20015;-66
2023/08/16 06:05:21;;;;;;;11.32;8.32;;;;;;;18.66;81.15;101886.25;5112037;28;20133;-66
2023/08/16 06:07:46;;;;;;;9.20;8.03;;;;;;;18.72;80.34;101885.75;5112745;27;20032;-66
2023/08/16 06:10:12;;;;;;;9.27;7.55;;;;;;;18.74;80.18;101881.97;5112460;28;20035;-65
2023/08/16 06:12:37;;;;;;;10.20;7.03;;;;;;;18.74;80.71;101873.88;5112969;28;20039;-65
2023/08/16 06:15:03;;;;;;;12.68;7.38;;;;;;;18.70;80.18;101874.22;5111643;28;20012;-65
2023/08/16 06:17:31;;;;;;;14.05;7.93;;;;;;;18.73;80.60;101877.53;5112663;28;20052;-66
2023/08/16 06:19:57;;;;;;;11.82;7.57;;;;;;;18.85;79.99;101875.69;5112794;28;20028;-65
2023/08/16 06:22:22;;;;;;;9.60;7.40;;;;;;;18.78;79.99;101882.56;5112706;28;20378;-65
2023/08/16 06:24:48;;;;;;;9.43;7.15;;;;;;;18.75;79.80;101861.25;5111049;28;20149;-65
2023/08/16 06:27:13;;;;;;;8.85;6.57;;;;;;;18.84;79.58;101882.94;5111447;28;20028;-65
2023/08/16 06:29:38;;;;;;;10.43;7.05;;;;;;;18.95;79.23;101875.81;5112722;28;20019;-66
2023/08/16 06:32:04;;;;;;;10.10;7.15;;;;;;;18.98;79.46;101881.81;5112590;28;20454;-65
2023/08/16 06:34:30;;;;;;;11.77;6.80;;;;;;;19.11;78.77;101883.50;5111244;28;20409;-66
2023/08/16 06:36:56;;;;;;;9.95;7.10;;;;;;;19.25;79.10;101889.44;5112546;28;20027;-65
2023/08/16 06:39:21;;;;;;;9.52;6.97;;;;;;;19.36;79.63;101890.41;5110702;28;20114;-65
2023/08/16 06:41:50;;;;;;;12.32;7.03;;;;;;;19.50;78.64;101887.38;5112532;28;20042;-65
2023/08/16 06:44:15;;;;;;;7.05;6.32;;;;;;;19.53;76.62;101881.75;5112559;28;20384;-66
2023/08/16 06:46:41;;;;;;;10.40;6.65;;;;;;;19.67;76.00;101888.69;5112558;28;20024;-65
2023/08/16 06:49:06;;;;;;;9.63;6.13;;;;;;;19.76;75.64;101897.84;5111174;28;20028;-66
2023/08/16 06:51:34;;;;;;;11.05;6.07;;;;;;;19.79;74.65;101890.34;5112142;28;20015;-65
2023/08/16 06:53:59;;;;;;;11.63;6.72;;;;;;;19.80;73.77;101888.53;5111928;28;20401;-65
2023/08/16 06:56:25;;;;;;;8.40;5.72;;;;;;;19.90;73.44;101898.38;5112400;28;20023;-65
2023/08/16 06:58:50;;;;;;;13.20;6.10;;;;;;;19.91;73.68;101910.03;5112443;28;20164;-65
2023/08/16 07:01:16;;;;;;;8.45;5.32;;;;;;;20.05;72.30;101911.56;5111148;28;20370;-65
2023/08/16 07:03:41;;;;;;;8.20;5.15;;;;;;;20.02;70.77;101909.97;5111067;28;20030;-64
2023/08/16 07:06:06;;;;;;;8.15;5.35;;;;;;;20.04;72.30;101909.84;5111028;28;20363;-65
2023/08/16 07:08:32;;;;;;;9.55;5.10;;;;;;;20.05;72.66;101911.56;5111990;28;20031;-65
2023/08/16 07:10:57;;;;;;;7.10;5.50;;;;;;;20.02;72.30;101909.97;5110733;28;20028;-65
2023/08/16 07:13:23;;;;;;;8.32;5.43;;;;;;;20.06;72.84;101902.44;5110853;28;20024;-65
2023/08/16 07:15:48;;;;;;;12.60;5.70;;;;;;;20.10;71.12;101888.56;5113111;28;20043;-65
2023/08/16 07:18:14;;;;;;;5.95;4.72;;;;;;;20.21;71.98;101890.34;5114917;28;20134;-65
2023/08/16 07:20:39;;;;;;;8.70;4.88;;;;;;;20.32;70.38;101894.78;5115988;28;20028;-65
2023/08/16 07:23:06;;;;;;;9.65;4.80;;;;;;;20.25;69.97;101902.56;5114907;28;20028;-65
2023/08/16 07:25:35;;;;;;;8.70;4.55;;;;;;;20.13;71.04;101919.84;5115554;28;20081;-66
2023/08/16 07:28:00;;;;;;;7.85;4.07;;;;;;;20.30;70.17;101916.56;5116081;28;20929;-66
2023/08/16 07:30:25;;;;;;;6.72;5.13;;;;;;;20.51;68.98;101926.47;5115887;28;20103;-65
2023/08/16 07:32:51;;;;;;;8.25;4.20;;;;;;;20.50;68.92;101920.22;5114721;28;20020;-66
2023/08/16 07:35:17;;;;;;;6.47;4.55;;;;;;;20.53;68.79;101916.38;5115672;28;20027;-66
2023/08/16 07:37:44;;;;;;;5.07;3.88;;;;;;;20.53;67.71;101914.56;5115936;28;20073;-66
2023/08/16 07:40:10;;;;;;;11.07;4.40;;;;;;;20.80;68.11;101915.81;5115358;28;20210;-66
2023/08/16 07:42:36;;;;;;;6.32;3.85;;;;;;;20.92;66.48;101912.00;5115913;28;20072;-66
2023/08/16 07:45:03;;;;;;;8.75;3.67;;;;;;;21.05;66.14;101917.13;5114360;28;20027;-66
2023/08/16 07:47:28;;;;;;;6.82;4.07;;;;;;;21.10;66.22;101920.28;5115750;27;20093;-66
2023/08/16 07:49:54;;;;;;;7.15;4.00;;;;;;;21.16;67.80;101922.44;5113997;28;20035;-66
2023/08/16 07:52:20;;;;;;;6.00;3.92;;;;;;;21.30;65.10;101924.75;5115569;28;20023;-66
2023/08/16 07:54:46;;;;;;;5.25;3.95;;;;;;;21.27;66.77;101924.16;5115000;28;20019;-65
2023/08/16 07:57:11;;;;;;;7.18;3.83;;;;;;;21.29;64.97;101927.56;5115724;28;20023;-65
2023/08/16 07:59:36;;;;;;;6.15;3.60;;;;;;;21.27;65.02;101925.03;5114145;28;20383;-66
2023/08/16 08:02:06;;;;;;;7.53;3.63;;;;;;;21.49;65.01;101925.78;5115520;28;20045;-66
2023/08/16 08:04:31;;;;;;;;;;;;;;;21.70;65.10;101929.19;5115431;28;20035;-66
2023/08/16 08:06:56;;;;;;;7.45;3.72;;;;;;;21.68;64.66;101935.78;5114178;28;19907;-66
2023/08/16 08:09:22;;;;;;;4.55;3.15;;;;;;;21.80;63.53;101939.19;5115110;28;20031;-66
2023/08/16 08:11:47;;;;;;;5.05;3.20;;;;;;;21.94;62.19;101936.91;5113914;28;20122;-66
2023/08/16 08:14:12;;;;;;;5.50;3.60;;;;;;;22.03;61.43;101945.13;5113808;28;20031;-66
2023/08/16 08:16:38;;;;;;;7.07;3.45;;;;;;;21.99;62.07;101944.56;5115192;28;20486;-66
2023/08/16 08:19:03;;;;;;;5.47;3.42;;;;;;;22.03;62.70;101937.88;5113581;28;20055;-66
2023/08/16 08:21:31;;;;;;;5.72;3.30;;;;;;;22.15;62.30;101944.84;5115122;28;20031;-66
2023/08/16 08:23:56;;;;;;;8.63;3.63;;;;;;;22.14;60.98;101943.13;5113192;28;20092;-66
2023/08/16 08:26:24;;;;;;;5.65;3.70;;;;;;;22.11;61.11;101935.28;5113792;28;20094;-66
2023/08/16 08:28:51;;;;;;;7.13;3.65;;;;;;;22.15;60.48;101936.72;5113793;28;20616;-66
2023/08/16 08:31:17;;;;;;;9.90;3.42;;;;;;;22.44;60.55;101939.38;5114862;28;20024;-66
2023/08/16 08:33:45;;;;;;;8.25;3.35;;;;;;;22.64;60.83;101950.16;5113189;28;20027;-66
2023/08/16 08:36:11;;;;;;;5.97;3.30;;;;;;;22.73;60.34;101943.81;5113909;28;20097;-66
2023/08/16 08:38:39;;;;;;;8.93;3.42;;;;;;;22.72;58.98;101947.53;5096172;28;20027;-66
2023/08/16 08:41:06;;;;;;;5.97;3.53;;;;;;;22.65;58.82;101951.88;5096843;28;20363;-66
2023/08/16 08:43:37;;;;;;;7.40;3.58;;;;;;;22.63;59.44;101945.72;5114462;28;20024;-66
2023/08/16 08:46:05;;;;;;;8.45;3.55;;;;;;;22.44;59.33;101946.63;5114680;27;20056;-66
2023/08/16 08:48:30;;;;;;;8.70;3.55;;;;;;;22.55;59.97;101942.91;5114165;28;20023;-66
2023/08/16 08:50:57;;;;;;;9.00;3.78;;;;;;;22.58;59.73;101948.03;5114424;28;20068;-66
2023/08/16 08:53:24;;;;;;;9.70;3.67;;;;;;;22.55;60.07;101960.03;5114321;28;20527;-66
2023/08/16 08:55:52;;;;;;;5.30;3.83;;;;;;;22.57;60.70;101955.31;5114347;28;20382;-66
2023/08/16 08:58:19;;;;;;;6.53;3.40;;;;;;;22.56;63.49;101959.03;5113175;28;20474;-66
2023/08/16 09:00:46;;;;;;;10.73;3.92;;;;;;;22.53;61.59;101959.34;5114241;28;20374;-66
2023/08/16 09:03:12;;;;;;;9.77;3.75;;;;;;;22.53;60.65;101953.03;5114115;28;20023;-66
2023/08/16 09:05:40;;;;;;;5.53;3.33;;;;;;;22.65;62.10;101951.88;5114243;28;20020;-66
2023/08/16 09:08:08;;;;;;;9.68;3.88;;;;;;;22.70;61.09;101952.25;5113081;28;20474;-66
2023/08/16 09:10:37;;;;;;;8.53;3.43;;;;;;;22.76;61.37;101958.94;5113600;28;20051;-66
2023/08/16 09:13:05;;;;;;;4.97;3.30;;;;;;;22.90;60.14;101967.44;5114065;28;20012;-66
2023/08/16 09:15:30;;;;;;;6.03;3.60;;;;;;;22.85;59.05;101968.91;5113940;27;20103;-66
2023/08/16 09:18:26;;;;;;;5.75;4.13;;;;;;;22.96;60.35;101967.88;5113250;28;20043;-66
2023/08/16 09:20:52;;;;;;;7.25;4.13;;;;;;;22.88;60.35;101965.88;5097140;28;20043;-66
2023/08/16 09:23:18;;;;;;;7.30;4.13;;;;;;;22.87;59.15;101965.03;5113873;28;20039;-66
2023/08/16 09:25:44;;;;;;;6.25;3.88;;;;;;;22.87;60.53;101959.59;5113328;28;20412;-66
2023/08/16 09:28:14;;;;;;;7.65;3.67;;;;;;;22.87;60.50;101959.59;5113997;28;20474;-66
2023/08/16 09:30:43;;;;;;;9.63;3.88;;;;;;;22.93;59.51;101963.59;5095336;28;20027;-66
2023/08/16 09:33:13;;;;;;;8.63;4.00;;;;;;;22.98;60.41;101963.19;5113882;28;20019;-66
2023/08/16 09:35:45;;;;;;;6.50;4.00;;;;;;;23.05;59.98;101965.13;5113919;28;20076;-66
2023/08/16 09:38:14;;;;;;;9.40;3.80;;;;;;;22.99;58.91;101949.44;5113814;28;20096;-66
2023/08/16 09:40:51;;;;;;;7.22;3.95;;;;;;;23.09;59.88;101952.13;5113078;28;20049;-66
2023/08/16 09:43:18;;;;;;;9.90;4.53;;;;;;;23.16;60.12;101950.50;5113456;28;20454;-66
2023/08/16 09:45:47;;;;;;;7.00;4.38;;;;;;;23.21;62.05;101952.78;5113157;28;20031;-66
2023/08/16 09:48:12;;;;;;;6.93;4.03;;;;;;;23.28;61.29;101959.28;5112070;28;20118;-66
2023/08/16 09:50:38;;;;;;;7.15;4.07;;;;;;;23.37;60.98;101952.94;5112021;28;20107;-66
2023/08/16 09:53:06;;;;;;;6.82;4.05;;;;;;;23.45;60.08;101954.88;5111951;28;20088;-66
2023/08/16 09:55:33;;;;;;;9.50;4.95;;;;;;;23.43;59.84;101944.16;5111328;28;20072;-66
2023/08/16 09:57:59;;;;;;;8.75;5.13;;;;;;;23.44;60.82;101947.72;5113343;28;20028;-66
2023/08/16 10:00:34;;;;;;;11.70;5.47;;;;;;;23.50;60.14;101952.53;5111562;28;20026;-66
2023/08/16 10:03:01;;;;;;;7.70;4.78;;;;;;;23.43;59.44;101946.03;5113298;28;20102;-66
2023/08/16 10:05:26;;;;;;;6.78;4.65;;;;;;;23.31;60.35;101946.25;5113083;28;20031;-67
2023/08/16 10:07:54;;;;;;;7.32;4.88;;;;;;;23.30;59.86;101949.97;5112987;28;20016;-66
2023/08/16 10:10:20;;;;;;;8.23;5.00;;;;;;;23.25;60.47;101941.44;5112441;28;20034;-66
2023/08/16 10:12:47;;;;;;;7.78;4.65;;;;;;;23.22;59.45;101946.31;5113004;28;20020;-66
2023/08/16 10:15:14;;;;;;;9.75;4.20;;;;;;;23.19;59.35;101947.47;5112651;28;20020;-67
2023/08/16 10:17:41;;;;;;;8.15;4.03;;;;;;;23.27;59.83;101949.44;5112809;27;20401;-66
2023/08/16 10:20:21;;;;;;;7.50;4.90;;;;;;;23.26;60.70;101953.97;5112669;28;20500;-67
2023/08/16 10:22:51;;;;;;;8.85;4.60;;;;;;;23.07;60.03;101935.97;5111030;28;20466;-66
2023/08/16 10:25:23;;;;;;;6.85;3.63;;;;;;;23.13;59.64;101950.81;5112199;28;20470;-67
2023/08/16 10:27:50;;;;;;;5.70;4.20;;;;;;;23.14;59.69;101957.94;5111262;28;20046;-66
2023/08/16 10:30:21;;;;;;;8.20;4.57;;;;;;;23.24;60.04;101947.03;5110806;28;20027;-66
2023/08/16 10:33:09;;;;;;;7.20;4.60;;;;;;;23.31;61.99;101950.81;5112290;28;20024;-66
2023/08/16 10:35:36;;;;;;;6.80;4.95;;;;;;;23.47;60.66;101940.16;5111874;28;20099;-66
2023/08/16 10:38:01;;;;;;;10.10;6.00;;;;;;;23.57;60.14;101946.34;5112408;28;20027;-67
2023/08/16 10:40:29;;;;;;;11.10;5.22;;;;;;;23.66;61.39;101943.72;5111859;28;20501;-67
2023/08/16 10:43:03;;;;;;;8.77;4.43;;;;;;;23.77;61.04;101951.66;5111021;28;20528;-67
2023/08/16 10:45:33;;;;;;;9.13;4.90;;;;;;;23.96;60.20;101945.19;5110455;28;20032;-67
2023/08/16 10:48:13;;;;;;;8.48;5.25;;;;;;;24.06;60.51;101945.06;5112401;28;20378;-66
2023/08/16 10:50:39;;;;;;;6.80;4.40;;;;;;;24.18;60.34;101944.69;5112759;28;20031;-67
2023/08/16 10:53:05;;;;;;;8.88;4.97;;;;;;;24.53;60.15;101936.56;5116560;28;20090;-66
2023/08/16 10:55:30;;;;;;;9.60;5.15;;;;;;;24.34;58.68;101930.31;5114694;28;20031;-66
2023/08/16 10:57:58;;;;;;;10.70;5.50;;;;;;;24.22;58.35;101940.63;5114946;28;20504;-66
2023/08/16 11:00:35;;;;;;;8.50;5.37;;;;;;;24.16;59.03;101940.41;5116401;27;20080;-66
2023/08/16 11:03:01;;;;;;;11.90;4.85;;;;;;;24.16;58.26;101938.53;5116453;28;20647;-66
2023/08/16 11:05:29;;;;;;;8.50;5.00;;;;;;;24.22;59.89;101943.34;5116218;28;20019;-67
2023/08/16 11:07:54;;;;;;;5.00;3.83;;;;;;;24.45;57.54;101942.84;5115118;28;20031;-67
2023/08/16 11:10:22;;;;;;;8.10;4.15;;;;;;;24.46;58.99;101939.94;5114433;28;20034;-66
2023/08/16 11:12:48;;;;;;;8.82;5.47;;;;;;;24.46;59.19;101939.09;5114365;28;20520;-66
2023/08/16 11:15:17;;;;;;;10.88;4.65;;;;;;;24.64;57.47;101945.31;5114656;28;20062;-66
2023/08/16 11:17:44;;;;;;;7.18;4.53;;;;;;;24.63;57.94;101942.78;5115949;28;20513;-66
2023/08/16 11:20:12;;;;;;;8.85;4.78;;;;;;;24.76;57.87;101940.44;5116092;28;20084;-67